Providenciales International Airport (MBPV)
Providenciales, TC
Field Elevation: 28
Lat: 21°46.43N  Long: 72°16.12W
CTAF/Unicom Freq: 126.0000
   
    
Weather Advisories
2017-07-21   16:51 Z
Altimeter 30.05" Hg
Wind 140° @ 11 KT
Gusts 16 KT
Temperature 33° C (91° F)
Dewpoint 24° C (75° F)
Relative Humidity 60%
Density Altitude 1,900 feet
Condensation Altitude 4,500 feet
Precip Gauge 0.0" / 0.0" (hour/day)
Heat Index: 40° C (104° F)
Wind and Runways
Indicated Runway = 10
Headwind = 8 kt
Crosswind = 7 kt
History
 
 
 
More Info
All DigiWx sites map
 
NOAA Forecast
 
 
about DigiWx
 
FAA Disclaimer: The data displayed is for advisory purposes only and is not to be used for flight planning or operations. For official data, please call (not available) to hear the current automated AWOS voice message.
  METAR MBPV 211651Z AUTO 14011G16KT 33/24 A3005